Time;durP1;ratioP1;P1;durP2;ratioP2;P2;SDS_P1;SDS_P2;PMS_P1;PMS_P2;Temp;Humidity;BMP_temperature;BMP_pressure;BME280_temperature;BME280_humidity;BME280_pressure;Samples;Min_cycle;Max_cycle;Signal;HPM_P1;HPM_P2
2023/06/13 00:02:02;;;;;;;7.60;4.77;;;;;;;14.31;80.39;100246.16;123278;1102;104223;-73
2023/06/13 00:04:34;;;;;;;7.87;4.20;;;;;;;14.28;80.16;100248.74;123174;1102;104272;-73
2023/06/13 00:07:09;;;;;;;6.63;4.60;;;;;;;14.27;80.12;100244.31;123116;1100;104405;-73
2023/06/13 00:09:40;;;;;;;7.07;4.70;;;;;;;14.27;80.87;100244.31;123089;1100;104319;-74
2023/06/13 00:12:12;;;;;;;8.57;4.50;;;;;;;14.25;80.83;100235.49;123140;1100;104251;-73
2023/06/13 00:14:44;;;;;;;6.55;4.30;;;;;;;14.24;80.21;100238.98;123071;1100;104281;-73
2023/06/13 00:17:15;;;;;;;9.47;4.97;;;;;;;14.24;80.74;100231.06;123194;1100;104275;-73
2023/06/13 00:19:48;;;;;;;10.97;5.17;;;;;;;14.24;81.14;100231.06;123130;1102;104409;-73
2023/06/13 00:22:20;;;;;;;7.60;4.50;;;;;;;14.24;80.60;100227.55;123227;1102;104271;-73
2023/06/13 00:24:51;;;;;;;10.40;4.47;;;;;;;14.25;80.92;100213.51;123083;1102;104300;-73
2023/06/13 00:27:23;;;;;;;10.67;5.00;;;;;;;14.27;80.52;100223.20;123151;1102;104267;-73
2023/06/13 00:29:54;;;;;;;8.47;5.00;;;;;;;14.28;81.64;100224.98;123171;1100;104305;-74
2023/06/13 00:32:25;;;;;;;10.60;4.80;;;;;;;14.27;81.70;100215.28;123130;1100;104349;-73
2023/06/13 00:34:56;;;;;;;12.70;5.05;;;;;;;14.27;81.63;100210.01;123151;1101;104328;-73
2023/06/13 00:37:29;;;;;;;10.60;5.30;;;;;;;14.28;80.80;100209.16;123107;1100;104350;-73
2023/06/13 00:40:00;;;;;;;10.27;5.03;;;;;;;14.29;81.48;100215.31;123281;1102;104277;-72
2023/06/13 00:42:33;;;;;;;12.37;4.87;;;;;;;14.31;81.19;100214.48;123162;1102;104344;-74
2023/06/13 00:45:22;;;;;;;12.10;5.10;;;;;;;14.33;81.07;100215.38;123051;1101;104767;-73
2023/06/13 00:47:55;;;;;;;10.17;5.00;;;;;;;14.35;81.81;100211.04;123141;1102;104280;-73
2023/06/13 00:50:30;;;;;;;14.50;5.42;;;;;;;14.35;81.20;100205.77;123209;1102;104200;-73
2023/06/13 00:53:03;;;;;;;9.95;5.15;;;;;;;14.33;82.22;100212.74;123135;1102;104280;-73
2023/06/13 00:55:35;;;;;;;9.63;4.97;;;;;;;14.32;82.00;100199.52;123149;1101;104271;-73
2023/06/13 00:58:07;;;;;;;8.57;5.27;;;;;;;14.33;81.54;100198.67;123114;1102;104444;-74
2023/06/13 01:00:40;;;;;;;8.97;4.70;;;;;;;14.33;82.03;100206.59;123280;1101;104395;-74
2023/06/13 01:03:15;;;;;;;10.60;4.83;;;;;;;14.34;82.69;100198.70;123147;1102;104322;-74
2023/06/13 01:05:47;;;;;;;8.30;4.13;;;;;;;14.34;81.92;100198.70;123108;1101;104255;-74
2023/06/13 01:08:23;;;;;;;7.10;4.60;;;;;;;14.35;82.16;100195.20;123130;1102;104389;-73
2023/06/13 01:11:03;;;;;;;9.20;4.60;;;;;;;14.37;82.09;100198.74;123215;1102;104501;-74
2023/06/13 01:13:43;;;;;;;8.10;4.23;;;;;;;14.38;82.64;100189.97;123113;1101;104304;-75
2023/06/13 01:16:21;;;;;;;12.80;4.70;;;;;;;14.40;82.18;100197.91;123137;1100;104278;-74
2023/06/13 01:18:59;;;;;;;8.37;4.13;;;;;;;14.42;81.81;100195.30;123175;1102;104792;-74
2023/06/13 01:21:37;;;;;;;12.33;4.63;;;;;;;14.45;81.82;100188.30;123174;1102;104444;-72
2023/06/13 01:24:14;;;;;;;8.60;4.80;;;;;;;14.46;83.02;100189.17;123185;1102;104441;-75
2023/06/13 01:26:54;;;;;;;6.47;4.50;;;;;;;14.45;82.13;100190.94;123143;1102;104617;-75
2023/06/13 01:29:26;;;;;;;9.27;4.57;;;;;;;14.44;82.17;100191.80;123185;1102;104709;-74
2023/06/13 01:32:01;;;;;;;7.45;4.35;;;;;;;14.45;82.67;100184.78;123237;1102;104760;-74
2023/06/13 01:34:33;;;;;;;8.23;4.10;;;;;;;14.45;81.69;100193.58;123156;1102;104351;-74
2023/06/13 01:37:05;;;;;;;5.87;3.97;;;;;;;14.46;82.68;100183.90;123139;1102;104390;-74
2023/06/13 01:39:37;;;;;;;7.03;4.10;;;;;;;14.47;82.27;100183.92;123143;1102;104286;-74
2023/06/13 01:42:09;;;;;;;8.83;4.30;;;;;;;14.49;81.68;100181.30;123176;1102;104294;-74
2023/06/13 01:44:41;;;;;;;11.10;4.60;;;;;;;14.50;82.38;100177.81;123226;1102;104663;-75
2023/06/13 01:47:22;;;;;;;6.97;4.40;;;;;;;14.51;82.38;100177.83;123381;1102;104331;-73
2023/06/13 01:50:04;;;;;;;7.00;4.27;;;;;;;14.52;81.85;100176.07;123101;1100;104275;-74
2023/06/13 01:52:41;;;;;;;10.07;4.20;;;;;;;14.53;82.52;100183.14;123116;1102;104238;-74
2023/06/13 01:55:16;;;;;;;9.40;4.50;;;;;;;14.52;82.31;100183.98;123132;1102;104302;-75
2023/06/13 01:57:58;;;;;;;9.47;4.60;;;;;;;14.52;82.48;100192.82;123080;1102;104387;-74
2023/06/13 02:00:29;;;;;;;7.30;4.37;;;;;;;14.50;82.81;100189.25;123102;1102;104310;-74
2023/06/13 02:03:01;;;;;;;8.53;4.30;;;;;;;14.51;82.70;100184.88;123164;1102;104463;-74
2023/06/13 02:05:33;;;;;;;7.13;4.00;;;;;;;14.51;82.53;100193.67;123182;1102;104328;-74
2023/06/13 02:08:04;;;;;;;8.67;4.23;;;;;;;14.48;82.43;100198.91;123186;1102;104344;-73
2023/06/13 02:10:36;;;;;;;6.47;4.60;;;;;;;14.48;82.18;100198.03;123081;1102;104338;-74
2023/06/13 02:13:07;;;;;;;7.65;4.10;;;;;;;14.46;82.01;100198.01;123180;1101;104481;-74
2023/06/13 02:15:39;;;;;;;7.37;4.27;;;;;;;14.48;82.99;100203.31;123032;1102;104411;-75
2023/06/13 02:18:10;;;;;;;7.37;4.20;;;;;;;14.48;82.64;100196.27;123118;1101;104353;-74
2023/06/13 02:20:41;;;;;;;8.77;4.07;;;;;;;14.49;82.95;100195.41;123091;1102;104304;-74
2023/06/13 02:23:13;;;;;;;8.70;4.40;;;;;;;14.50;82.39;100193.66;123260;1100;104249;-74
2023/06/13 02:25:45;;;;;;;9.37;3.77;;;;;;;14.50;82.59;100194.53;123203;1101;104240;-74
2023/06/13 02:28:17;;;;;;;8.73;4.40;;;;;;;14.50;82.64;100193.66;123078;1101;104424;-74
2023/06/13 02:30:48;;;;;;;7.40;4.60;;;;;;;14.51;82.63;100198.08;123039;1102;104425;-75
2023/06/13 02:33:19;;;;;;;8.70;4.30;;;;;;;14.53;83.07;100196.34;123105;1102;104252;-74
2023/06/13 02:35:51;;;;;;;7.00;3.97;;;;;;;14.53;82.89;100199.85;123203;1102;104398;-74
2023/06/13 02:38:22;;;;;;;7.87;4.27;;;;;;;14.55;82.07;100203.42;123170;1101;104322;-74
2023/06/13 02:40:54;;;;;;;7.23;4.03;;;;;;;14.57;82.79;100211.38;123091;1102;104418;-75
2023/06/13 02:43:25;;;;;;;9.93;4.30;;;;;;;14.58;82.30;100209.61;123571;1101;104347;-75
2023/06/13 02:45:58;;;;;;;6.57;4.20;;;;;;;14.58;82.26;100217.53;123233;1101;104245;-74
2023/06/13 02:48:29;;;;;;;5.93;4.20;;;;;;;14.60;82.36;100210.51;123460;1101;104306;-75
2023/06/13 02:51:00;;;;;;;9.63;4.23;;;;;;;14.61;83.02;100214.97;123260;1102;104427;-74
2023/06/13 02:53:32;;;;;;;9.55;4.85;;;;;;;14.61;82.16;100210.56;123418;1102;104334;-73
2023/06/13 02:56:03;;;;;;;7.60;4.40;;;;;;;14.63;83.22;100206.22;123363;1102;104225;-74
2023/06/13 02:58:34;;;;;;;8.67;4.47;;;;;;;14.63;82.86;100211.50;123222;1102;104347;-75
2023/06/13 03:01:07;;;;;;;7.43;4.27;;;;;;;14.64;82.58;100205.33;123249;1102;104392;-74
2023/06/13 03:03:38;;;;;;;8.50;4.20;;;;;;;14.66;83.01;100200.98;123136;1102;104444;-74
2023/06/13 03:06:11;;;;;;;5.83;3.87;;;;;;;14.68;82.75;100198.36;123138;1102;104875;-74
2023/06/13 03:08:44;;;;;;;9.85;4.55;;;;;;;14.71;82.34;100198.40;123253;1102;104297;-74
2023/06/13 03:11:16;;;;;;;7.60;4.20;;;;;;;14.72;82.79;100202.80;123344;1102;104348;-74
2023/06/13 03:13:47;;;;;;;9.60;4.73;;;;;;;14.74;82.67;100201.97;123097;1102;104416;-74
2023/06/13 03:16:19;;;;;;;6.43;4.27;;;;;;;14.78;83.25;100200.24;123106;1102;104347;-74
2023/06/13 03:18:51;;;;;;;8.03;4.10;;;;;;;14.82;83.33;100202.07;123216;1102;104233;-74
2023/06/13 03:21:22;;;;;;;8.00;4.40;;;;;;;14.85;83.34;100198.56;123161;1102;104271;-75
2023/06/13 03:23:53;;;;;;;9.20;4.13;;;;;;;14.87;83.35;100197.73;123177;1102;104367;-75
2023/06/13 03:26:25;;;;;;;7.63;4.50;;;;;;;14.90;83.07;100199.53;123370;1102;104347;-75
2023/06/13 03:28:58;;;;;;;9.70;4.00;;;;;;;14.92;83.18;100195.14;123427;1102;104680;-74
2023/06/13 03:31:30;;;;;;;8.50;4.23;;;;;;;14.94;82.71;100201.33;123313;1102;104275;-74
2023/06/13 03:34:01;;;;;;;10.00;4.40;;;;;;;14.99;82.78;100210.22;123267;1102;104328;-74
2023/06/13 03:36:34;;;;;;;10.40;4.00;;;;;;;15.00;82.79;100211.97;123307;1102;104249;-75
2023/06/13 03:39:05;;;;;;;7.10;4.50;;;;;;;15.02;82.50;100204.98;123397;1102;104690;-74
2023/06/13 03:41:38;;;;;;;8.50;4.50;;;;;;;15.09;82.25;100203.29;123168;1102;104349;-73
2023/06/13 03:44:10;;;;;;;7.50;4.40;;;;;;;15.12;82.43;100210.38;123203;1102;104438;-73
2023/06/13 03:46:41;;;;;;;9.30;4.65;;;;;;;15.13;83.01;100201.56;123284;1102;104350;-75
2023/06/13 03:49:12;;;;;;;8.70;4.47;;;;;;;15.15;83.07;100197.20;123231;1102;104740;-74
2023/06/13 03:51:44;;;;;;;9.97;4.43;;;;;;;15.17;82.86;100203.39;123143;1102;104381;-74
2023/06/13 03:54:15;;;;;;;7.53;4.17;;;;;;;15.20;82.90;100198.14;123328;1102;104357;-74
2023/06/13 03:56:47;;;;;;;8.70;4.57;;;;;;;15.24;82.37;100205.25;123176;1102;104383;-75
2023/06/13 03:59:18;;;;;;;9.60;4.80;;;;;;;15.24;81.94;100208.77;123162;1102;104299;-75
2023/06/13 04:01:49;;;;;;;10.15;4.60;;;;;;;15.26;82.06;100203.50;123120;1102;104696;-75
2023/06/13 04:04:20;;;;;;;10.27;4.70;;;;;;;15.28;82.36;100204.39;123213;1102;104300;-74
2023/06/13 04:06:52;;;;;;;10.97;5.00;;;;;;;15.34;82.42;100204.47;123207;1102;104357;-75
2023/06/13 04:09:23;;;;;;;9.90;4.97;;;;;;;15.38;82.20;100203.64;123255;1102;104459;-75
2023/06/13 04:11:54;;;;;;;8.07;4.63;;;;;;;15.43;82.55;100208.98;123147;1102;104315;-75
2023/06/13 04:14:26;;;;;;;8.10;5.03;;;;;;;15.50;82.31;100208.16;123291;1102;104227;-76
2023/06/13 04:16:59;;;;;;;11.13;4.70;;;;;;;15.56;82.54;100202.94;123251;1101;104303;-75
2023/06/13 04:19:31;;;;;;;10.95;5.37;;;;;;;15.61;82.69;100210.92;123034;1102;104354;-75
2023/06/13 04:22:06;;;;;;;12.60;5.60;;;;;;;15.65;81.75;100204.80;123224;1102;104181;-75
2023/06/13 04:24:38;;;;;;;12.57;5.50;;;;;;;15.72;81.66;100197.81;123343;1102;104319;-76
2023/06/13 04:27:13;;;;;;;14.63;5.67;;;;;;;15.77;82.49;100202.32;123465;1102;104383;-73
2023/06/13 04:29:44;;;;;;;13.27;5.53;;;;;;;15.79;82.16;100211.14;123344;1102;104692;-73
2023/06/13 04:32:17;;;;;;;12.60;5.33;;;;;;;15.80;82.31;100214.70;123297;1102;104328;-73
2023/06/13 04:34:52;;;;;;;13.17;5.50;;;;;;;15.85;81.40;100214.71;123777;1102;104338;-73
2023/06/13 04:37:25;;;;;;;13.33;5.50;;;;;;;15.88;81.83;100213.01;123399;1102;104303;-73
2023/06/13 04:39:56;;;;;;;14.40;4.70;;;;;;;15.90;81.28;100207.73;123294;1101;104350;-72
2023/06/13 04:42:28;;;;;;;13.03;5.03;;;;;;;15.92;82.12;100216.56;123330;1102;104248;-75
2023/06/13 04:45:03;;;;;;;11.57;5.30;;;;;;;15.96;81.40;100211.31;123242;1102;104286;-76
2023/06/13 04:47:34;;;;;;;17.47;5.37;;;;;;;16.01;81.26;100205.18;123343;1102;104472;-76
2023/06/13 04:50:06;;;;;;;10.83;4.57;;;;;;;16.09;81.43;100209.65;123488;1102;104252;-76
2023/06/13 04:52:41;;;;;;;11.70;4.70;;;;;;;16.15;81.48;100201.76;123652;1102;104252;-76
2023/06/13 04:55:13;;;;;;;10.10;4.43;;;;;;;16.25;81.54;100200.09;123771;1102;104325;-78
2023/06/13 04:57:44;;;;;;;14.23;4.40;;;;;;;16.35;81.34;100198.39;124037;1102;104277;-77
2023/06/13 05:00:16;;;;;;;11.40;4.23;;;;;;;16.41;80.84;100202.83;124026;1102;104238;-77
2023/06/13 05:02:48;;;;;;;8.63;4.23;;;;;;;16.45;80.95;100207.28;124052;1102;104224;-76
2023/06/13 05:05:20;;;;;;;12.93;4.53;;;;;;;16.45;80.33;100207.28;123871;1102;104281;-79
2023/06/13 05:07:55;;;;;;;9.93;4.23;;;;;;;16.50;80.11;100198.50;123894;1102;104188;-75
2023/06/13 05:10:28;;;;;;;8.47;3.90;;;;;;;16.58;79.67;100206.50;124429;1102;104253;-76
2023/06/13 05:13:01;;;;;;;6.93;3.70;;;;;;;16.66;79.46;100212.72;123873;1102;104165;-75
2023/06/13 05:15:32;;;;;;;8.30;3.00;;;;;;;16.69;79.32;100206.56;123933;1102;104280;-76
2023/06/13 05:18:06;;;;;;;8.50;3.33;;;;;;;16.70;79.26;100210.97;124417;1101;104249;-74
2023/06/13 05:20:37;;;;;;;7.80;3.50;;;;;;;16.70;78.81;100210.97;124717;1102;102105;-78
2023/06/13 05:23:10;;;;;;;11.40;4.20;;;;;;;16.73;78.52;100210.11;124128;1102;104299;-76
2023/06/13 05:25:46;;;;;;;11.23;4.10;;;;;;;16.73;78.08;100210.98;124500;1102;104352;-77
2023/06/13 05:28:17;;;;;;;10.87;4.00;;;;;;;16.72;77.54;100214.53;124364;1102;104268;-75
2023/06/13 05:30:51;;;;;;;8.73;4.40;;;;;;;16.79;78.14;100210.15;124421;1102;104632;-78
2023/06/13 05:33:21;;;;;;;;;;;;;;;16.86;77.35;100217.27;124729;1102;104233;-73
2023/06/13 05:35:53;;;;;;;8.50;3.90;;;;;;;16.92;77.74;100214.66;124431;1102;104230;-75
2023/06/13 05:38:24;;;;;;;6.47;3.80;;;;;;;16.92;76.63;100213.78;124451;1101;104329;-78
2023/06/13 05:40:55;;;;;;;8.57;3.70;;;;;;;16.90;76.91;100213.77;124214;1100;104270;-77
2023/06/13 05:43:27;;;;;;;9.10;4.37;;;;;;;16.90;77.38;100221.72;124451;1102;104293;-78
2023/06/13 05:45:58;;;;;;;9.70;4.37;;;;;;;16.98;76.46;100227.06;124253;1102;104242;-80
2023/06/13 05:48:32;;;;;;;9.43;4.37;;;;;;;16.95;76.59;100230.57;124488;1102;104147;-76
2023/06/13 05:51:05;;;;;;;9.93;4.87;;;;;;;16.92;76.64;100225.25;124463;1102;104366;-78
2023/06/13 05:53:37;;;;;;;11.47;4.97;;;;;;;16.92;76.93;100227.91;124440;1102;104245;-74
2023/06/13 05:56:09;;;;;;;13.55;4.97;;;;;;;17.03;76.67;100231.52;124455;1102;104204;-75
2023/06/13 05:58:41;;;;;;;12.80;5.53;;;;;;;17.10;76.46;100235.08;124995;1102;104220;-77
2023/06/13 06:01:12;;;;;;;16.20;6.40;;;;;;;17.10;75.94;100235.08;124511;1102;103819;-77
2023/06/13 06:03:44;;;;;;;14.73;6.03;;;;;;;17.13;76.30;100231.56;124804;1102;102930;-76
2023/06/13 06:06:16;;;;;;;15.20;6.43;;;;;;;17.19;76.12;100226.29;124615;1102;104220;-78
2023/06/13 06:08:49;;;;;;;17.97;6.70;;;;;;;17.22;75.49;100221.00;124348;1102;104253;-78
2023/06/13 06:11:20;;;;;;;14.70;6.50;;;;;;;17.33;75.61;100221.05;124168;1102;104194;-77
2023/06/13 06:13:52;;;;;;;16.90;6.33;;;;;;;17.42;75.27;100224.61;124338;1102;104179;-78
2023/06/13 06:16:24;;;;;;;18.80;7.25;;;;;;;17.46;74.88;100220.19;123979;1102;104288;-76
2023/06/13 06:18:56;;;;;;;16.93;6.50;;;;;;;17.57;74.84;100215.79;124374;1102;104174;-74
2023/06/13 06:21:30;;;;;;;16.90;6.77;;;;;;;17.67;74.72;100215.81;124244;1101;104207;-76
2023/06/13 06:24:03;;;;;;;18.53;7.60;;;;;;;17.69;74.69;100229.98;124540;1102;102446;-72
2023/06/13 06:26:36;;;;;;;14.58;6.40;;;;;;;17.67;73.91;100226.42;124317;1102;104230;-72
2023/06/13 06:29:09;;;;;;;18.33;6.67;;;;;;;17.60;74.12;100229.06;124140;1102;104488;-73
2023/06/13 06:31:41;;;;;;;17.43;6.37;;;;;;;17.58;74.33;100227.30;124133;1102;104258;-74
2023/06/13 06:34:12;;;;;;;16.87;6.07;;;;;;;17.58;73.88;100225.53;124287;1100;104162;-77
2023/06/13 06:36:49;;;;;;;13.00;5.70;;;;;;;17.56;74.23;100229.05;124404;1102;104290;-74
2023/06/13 06:39:46;;;;;;;11.40;4.43;;;;;;;17.48;72.78;100236.11;124388;1102;104348;-76
2023/06/13 06:42:16;;;;;;;;;;;;;;;17.45;73.27;100233.44;124436;1102;104190;-75
2023/06/13 06:44:58;;;;;;;10.40;5.00;;;;;;;17.45;73.41;100239.63;124408;1099;104165;-80
2023/06/13 06:47:33;;;;;;;12.73;5.33;;;;;;;17.45;73.45;100236.09;124561;1102;102757;-81
2023/06/13 06:50:11;;;;;;;12.60;5.37;;;;;;;17.48;73.42;100241.41;124429;1102;103471;-77
2023/06/13 06:52:45;;;;;;;10.43;5.20;;;;;;;17.52;72.56;100238.77;124470;1102;104348;-81
2023/06/13 06:55:19;;;;;;;11.70;5.23;;;;;;;17.61;73.17;100225.53;124583;1102;104342;-83
2023/06/13 06:57:54;;;;;;;11.77;5.33;;;;;;;17.74;73.11;100215.83;125032;1102;104650;-80
2023/06/13 07:00:27;;;;;;;9.43;4.80;;;;;;;17.89;73.12;100217.67;124511;1102;104159;-77
2023/06/13 07:02:59;;;;;;;10.98;4.83;;;;;;;18.01;72.56;100221.20;124415;1102;102876;-78
2023/06/13 07:05:32;;;;;;;13.17;5.50;;;;;;;18.08;72.13;100218.56;124417;1101;104277;-80
2023/06/13 07:08:04;;;;;;;11.80;5.00;;;;;;;18.18;71.66;100207.94;124289;1102;104482;-77
2023/06/13 07:10:36;;;;;;;10.20;5.10;;;;;;;18.31;71.97;100207.06;124472;1102;103454;-81
2023/06/13 07:13:08;;;;;;;13.13;5.33;;;;;;;18.41;71.29;100215.91;124553;1102;104243;-81
2023/06/13 07:15:42;;;;;;;12.13;5.30;;;;;;;18.49;71.31;100220.30;124340;1102;104303;-80
2023/06/13 07:18:15;;;;;;;11.00;5.03;;;;;;;18.61;71.63;100215.88;124311;1100;104276;-78
2023/06/13 07:20:46;;;;;;;12.30;5.37;;;;;;;18.67;70.88;100208.77;124325;1100;104233;-74
2023/06/13 07:23:20;;;;;;;9.83;4.73;;;;;;;18.68;70.38;100210.55;124288;1102;104243;-76
2023/06/13 07:25:53;;;;;;;11.97;4.67;;;;;;;18.61;69.94;100207.91;124617;1102;103562;-77
2023/06/13 07:33:51;;;;;;;8.23;4.27;;;;;;;18.44;69.88;100221.21;124362;1102;104249;-78
2023/06/13 07:36:29;;;;;;;7.80;4.50;;;;;;;18.39;70.22;100223.00;124659;1102;104076;-76
2023/06/13 07:39:15;;;;;;;8.87;4.30;;;;;;;18.38;70.48;100219.44;124268;1102;104331;-77
2023/06/13 07:41:49;;;;;;;10.60;4.47;;;;;;;18.41;70.11;100222.09;124311;1102;101874;-82
2023/06/13 07:44:24;;;;;;;8.37;4.00;;;;;;;18.44;70.12;100218.55;124423;1102;103262;-79
2023/06/13 07:46:59;;;;;;;8.07;4.17;;;;;;;18.43;70.00;100215.03;124266;1102;104155;-78
2023/06/13 07:49:37;;;;;;;6.23;3.80;;;;;;;18.44;69.30;100213.24;124540;1102;104211;-79
2023/06/13 07:52:09;;;;;;;9.07;3.97;;;;;;;18.46;69.41;100214.11;124206;1102;104245;-76
2023/06/13 07:54:42;;;;;;;10.30;4.30;;;;;;;18.45;69.32;100209.67;124301;1102;102316;-73
2023/06/13 07:57:18;;;;;;;10.83;4.03;;;;;;;18.48;69.19;100207.92;124231;1102;102760;-77
2023/06/13 07:59:50;;;;;;;6.77;3.87;;;;;;;18.58;69.31;100202.59;124443;1102;102951;-77
2023/06/13 08:02:22;;;;;;;9.53;4.17;;;;;;;18.60;69.13;100209.66;124658;1102;104198;-74
2023/06/13 08:04:53;;;;;;;6.53;4.10;;;;;;;18.64;69.07;100218.53;124438;1102;104357;-77
2023/06/13 08:07:26;;;;;;;8.33;4.10;;;;;;;18.72;68.42;100206.10;124436;1102;104191;-78
2023/06/13 08:09:58;;;;;;;8.18;4.08;;;;;;;18.79;68.95;100212.28;124203;1102;104275;-77
2023/06/13 08:12:29;;;;;;;10.20;4.33;;;;;;;18.78;68.24;100213.19;124270;1102;104098;-77
2023/06/13 08:15:01;;;;;;;9.47;4.13;;;;;;;18.75;68.47;100208.75;124297;1102;103425;-76
2023/06/13 08:17:36;;;;;;;10.90;4.17;;;;;;;18.77;68.00;100206.97;124303;1102;104306;-76
2023/06/13 08:20:09;;;;;;;8.63;4.40;;;;;;;18.88;69.08;100206.97;124398;1102;102879;-78
2023/06/13 08:22:44;;;;;;;7.17;3.93;;;;;;;19.06;68.82;100213.11;124641;1102;104300;-80
2023/06/13 08:25:15;;;;;;;11.80;4.37;;;;;;;19.08;68.27;100212.22;124463;1102;102732;-78
2023/06/13 08:27:50;;;;;;;11.00;4.70;;;;;;;19.16;68.54;100206.87;124219;1102;104280;-75
2023/06/13 08:30:22;;;;;;;9.60;4.60;;;;;;;19.20;68.38;100208.64;124372;1102;104162;-77
2023/06/13 08:32:54;;;;;;;9.20;4.07;;;;;;;19.25;66.89;100212.16;124329;1102;104376;-75
2023/06/13 08:35:28;;;;;;;8.73;3.93;;;;;;;19.30;67.42;100213.02;124232;1102;102495;-75
2023/06/13 08:38:02;;;;;;;8.57;4.27;;;;;;;19.34;67.12;100213.91;124269;1102;104169;-75
2023/06/13 08:40:35;;;;;;;9.20;3.63;;;;;;;19.33;67.41;100218.31;124320;1102;104242;-73
2023/06/13 08:43:12;;;;;;;9.13;3.77;;;;;;;19.40;67.59;100209.42;124282;1102;104220;-80
2023/06/13 08:45:47;;;;;;;10.87;3.93;;;;;;;19.58;66.23;100210.20;124463;1102;104188;-78
2023/06/13 08:48:18;;;;;;;11.43;4.40;;;;;;;19.61;66.26;100214.64;124264;1102;101998;-75
2023/06/13 08:50:49;;;;;;;9.83;4.80;;;;;;;19.61;67.12;100210.19;124394;1102;104275;-77
2023/06/13 08:53:24;;;;;;;8.53;4.13;;;;;;;19.66;66.40;100218.15;124234;1102;104245;-76
2023/06/13 08:56:02;;;;;;;7.63;4.10;;;;;;;19.63;66.62;100213.72;124320;1102;102526;-76
2023/06/13 08:58:38;;;;;;;8.07;3.97;;;;;;;19.62;65.72;100208.41;124319;1102;104293;-76
2023/06/13 09:01:13;;;;;;;6.47;3.80;;;;;;;19.59;66.72;100214.66;124234;1102;104358;-73
2023/06/13 09:03:47;;;;;;;9.10;3.73;;;;;;;19.61;66.03;100219.97;124462;1102;104408;-78
2023/06/13 09:06:20;;;;;;;5.73;3.60;;;;;;;19.62;65.35;100211.97;124472;1102;104306;-74
2023/06/13 09:08:53;;;;;;;7.97;3.93;;;;;;;19.63;66.16;100219.05;124211;1100;104254;-74
2023/06/13 09:11:28;;;;;;;8.40;3.95;;;;;;;19.61;65.74;100220.84;124578;1102;103232;-79
2023/06/13 09:14:04;;;;;;;8.65;4.05;;;;;;;19.65;65.91;100209.30;124290;1102;104284;-80
2023/06/13 09:16:36;;;;;;;10.83;4.47;;;;;;;19.72;65.92;100210.13;124247;1102;104325;-75
2023/06/13 09:19:10;;;;;;;7.73;4.07;;;;;;;19.69;64.93;100208.36;124159;1102;104226;-81
2023/06/13 09:21:44;;;;;;;10.90;4.50;;;;;;;19.66;65.67;100208.38;124346;1102;104245;-77
2023/06/13 09:24:16;;;;;;;10.87;4.53;;;;;;;19.70;65.95;100209.27;124587;1102;104280;-76
2023/06/13 09:26:49;;;;;;;10.03;3.63;;;;;;;19.75;64.80;100210.11;124113;1102;104274;-75
2023/06/13 09:29:23;;;;;;;7.30;3.57;;;;;;;19.86;64.85;100210.94;124061;1102;102195;-75
2023/06/13 09:32:00;;;;;;;6.00;3.58;;;;;;;19.95;65.34;100209.13;124386;1102;103327;-77
2023/06/13 09:34:37;;;;;;;7.17;3.97;;;;;;;20.02;64.36;100209.05;124596;1102;104224;-75
2023/06/13 09:37:12;;;;;;;9.90;4.17;;;;;;;20.08;64.80;100205.46;124542;1102;104335;-76
2023/06/13 09:39:53;;;;;;;9.27;3.70;;;;;;;20.21;64.66;100211.56;124706;1102;104251;-77
2023/06/13 09:42:28;;;;;;;6.70;3.60;;;;;;;20.28;65.12;100214.16;124852;1102;104345;-79
2023/06/13 09:45:06;;;;;;;9.80;3.90;;;;;;;20.24;64.49;100206.20;124684;1102;104175;-77
2023/06/13 09:47:42;;;;;;;8.37;3.87;;;;;;;20.27;64.21;100207.09;124533;1102;104255;-75
2023/06/13 09:50:17;;;;;;;7.50;3.40;;;;;;;20.28;63.65;100203.50;124513;1102;104251;-81
2023/06/13 09:52:50;;;;;;;7.67;3.60;;;;;;;20.32;64.51;100204.38;124556;1102;102846;-75
2023/06/13 09:55:32;;;;;;;5.80;3.55;;;;;;;20.43;64.22;100198.95;124612;1102;104226;-81
2023/06/13 09:58:07;;;;;;;9.30;3.60;;;;;;;20.46;63.68;100194.47;124501;1102;103004;-74
2023/06/13 10:00:40;;;;;;;9.20;3.47;;;;;;;20.54;63.04;100193.52;124397;1101;104259;-74
2023/06/13 10:03:13;;;;;;;7.85;3.90;;;;;;;20.57;63.33;100190.80;124585;1100;104309;-76
2023/06/13 10:05:45;;;;;;;;;;;;;;;20.63;63.03;100193.39;124521;1102;104233;-77
2023/06/13 10:08:25;;;;;;;8.07;4.00;;;;;;;20.77;62.84;100193.28;124500;1102;104256;-76
2023/06/13 10:10:58;;;;;;;7.17;3.90;;;;;;;20.85;63.47;100182.53;124300;1102;104115;-76
2023/06/13 10:13:40;;;;;;;7.73;3.97;;;;;;;20.82;62.31;100179.02;124445;1102;104242;-72
2023/06/13 10:16:13;;;;;;;11.87;3.83;;;;;;;20.74;61.68;100195.98;124664;1102;104251;-77
2023/06/13 10:18:53;;;;;;;9.90;4.27;;;;;;;20.71;62.66;100180.92;124793;1102;103000;-76
2023/06/13 10:21:30;;;;;;;9.93;4.30;;;;;;;20.74;62.35;100190.65;125942;1102;108956;-78
2023/06/13 10:24:03;;;;;;;10.53;4.37;;;;;;;20.79;62.24;100187.05;126176;1102;102329;-76
2023/06/13 10:26:40;;;;;;;7.12;3.62;;;;;;;20.90;62.52;100192.25;126289;1100;102472;-76
2023/06/13 10:29:40;;;;;;;11.03;4.50;;;;;;;21.08;62.55;100185.80;126109;1101;101401;-78
2023/06/13 10:32:45;;;;;;;6.97;4.00;;;;;;;21.11;61.94;100182.22;126165;1100;118064;-77
2023/06/13 10:35:38;;;;;;;7.33;3.90;;;;;;;21.05;62.15;100183.20;126250;1101;102522;-80
2023/06/13 10:38:57;;;;;;;8.08;3.80;;;;;;;20.94;61.32;100172.66;126054;1101;103057;-74
2023/06/13 10:41:49;;;;;;;10.07;4.07;;;;;;;20.81;61.12;100182.56;126077;1101;101920;-79
2023/06/13 10:44:33;;;;;;;9.50;3.83;;;;;;;20.75;61.91;100176.43;126066;1102;102863;-77
2023/06/13 10:47:06;;;;;;;9.20;4.00;;;;;;;20.79;62.24;100168.38;125587;1100;104271;-77
2023/06/13 10:49:42;;;;;;;6.90;3.67;;;;;;;20.90;60.91;100167.38;124711;1102;103668;-75
2023/06/13 10:52:13;;;;;;;7.93;3.90;;;;;;;21.04;60.95;100170.75;126136;1102;103014;-77
2023/06/13 10:57:53;;;;;;;7.25;3.52;;;;;;;21.22;61.88;100163.41;126089;1102;102042;-81
2023/06/13 11:00:29;;;;;;;9.30;3.70;;;;;;;21.27;61.47;100169.55;126125;1100;102228;-81
2023/06/13 11:03:11;;;;;;;7.43;4.00;;;;;;;21.26;61.32;100158.01;125435;1101;108103;-76
2023/06/13 11:05:52;;;;;;;7.07;4.10;;;;;;;21.26;61.26;100167.81;124627;1101;104153;-80
2023/06/13 11:11:04;;;;;;;9.57;4.30;;;;;;;21.23;60.23;100158.05;124444;1102;104169;-79
2023/06/13 11:13:45;;;;;;;7.53;4.00;;;;;;;21.23;60.21;100144.70;124715;1101;104258;-78
2023/06/13 11:16:38;;;;;;;11.87;4.50;;;;;;;21.20;60.77;100152.75;124640;1102;104175;-80
2023/06/13 11:19:19;;;;;;;7.65;4.20;;;;;;;21.23;59.80;100143.84;124774;1102;104201;-78
2023/06/13 11:22:07;;;;;;;10.60;4.13;;;;;;;21.27;60.65;100145.54;124668;1102;104109;-78
2023/06/13 11:24:40;;;;;;;8.17;3.90;;;;;;;21.32;60.13;100138.38;124577;1102;102015;-74
2023/06/13 11:27:12;;;;;;;8.37;4.33;;;;;;;21.34;60.04;100137.42;124470;1102;103678;-75
2023/06/13 11:29:45;;;;;;;7.23;4.53;;;;;;;21.31;60.33;100140.14;124097;1102;104427;-76
2023/06/13 11:32:19;;;;;;;8.55;4.65;;;;;;;21.33;59.77;100142.78;124553;1102;104166;-78
2023/06/13 11:35:00;;;;;;;7.60;4.30;;;;;;;21.40;60.42;100139.14;124646;1102;104226;-77
2023/06/13 11:37:44;;;;;;;10.43;4.40;;;;;;;21.40;60.01;100138.27;126493;1101;102871;-77
2023/06/13 11:40:25;;;;;;;7.17;4.13;;;;;;;21.35;59.94;100132.99;126085;1102;102928;-77
2023/06/13 11:43:00;;;;;;;8.70;4.20;;;;;;;21.32;60.44;100135.70;126161;1101;103137;-77
2023/06/13 11:45:35;;;;;;;8.97;3.90;;;;;;;21.32;60.06;100144.58;126220;1102;103176;-76
2023/06/13 11:48:11;;;;;;;7.43;4.10;;;;;;;21.24;60.11;100135.81;126056;1101;102235;-80
2023/06/13 11:50:53;;;;;;;11.03;4.60;;;;;;;21.06;59.80;100139.59;125079;1101;104300;-77